Green Ice — C6SO4 — position and weather

sailwx.info

Track history (hours):
 
Tides and Currents Weather Stations Pressure Air Temp Water Temp Dewpoint Dewpoint Depression Visibility Wind Speed Wind Dir Waves Ship Positions

Green Ice

Last reported at 2014-Dec-21 04:34 UTC. Time now 2014-Dec-22 06:22 UTC.
Position N 70°42' E 023°33'.

Length 86 m; draft 5.9 m.

MMSI: 311411000.

Date/timePositionNaut miles runAvg speedWind from/ knotsBaromVisibWave heightAir tempDewpointWater temp
2014-Dec-21 04:34N 70°42' E 023°33'3 3.2
2014-Dec-21 03:34N 70°40' E 023°41'0 0.0
2014-Dec-21 02:33N 70°40' E 023°41'0 0.0
2014-Dec-21 01:34N 70°40' E 023°41'2 1.8
2014-Dec-21 00:33N 70°38' E 023°40'5 5.2
2014-Dec-20 23:33N 70°33' E 023°38'106 6.6
2014-Dec-20 07:32N 69°43' E 019°02'4 0.7
2014-Dec-20 01:33N 69°39' E 018°58'147 8.4
2014-Dec-19 08:04N 67°50' E 014°25'713.8
2014-Dec-19 07:33N 67°44' E 014°17'1313.6
2014-Dec-19 06:33N 67°31' E 014°22'1313.1
2014-Dec-19 05:33N 67°17' E 014°22'1 0.7
2014-Dec-19 04:33N 67°17' E 014°24'0 0.0
2014-Dec-19 03:33N 67°17' E 014°24'0 0.0
2014-Dec-19 02:33N 67°17' E 014°24'0 0.0
2014-Dec-19 01:33N 67°17' E 014°24'0 0.0
2014-Dec-19 00:33N 67°17' E 014°24'1 0.9
2014-Dec-18 23:33N 67°17' E 014°22'1212.0
2014-Dec-18 22:33N 67°08' E 014°01'1313.1
2014-Dec-18 21:33N 66°58' E 013°39'129 8.6
2014-Dec-18 06:28N 64°59' E 011°35'1112.4
2014-Dec-18 05:33N 64°52' E 011°15'0 0.4
2014-Dec-18 04:33N 64°52' E 011°14'0 0.0
2014-Dec-18 03:33N 64°52' E 011°14'  
2014-Dec-15 11:24N 59°30' E 005°13'810.0
2014-Dec-15 10:33N 59°22' E 005°18'2 1.8
2014-Dec-15 09:32N 59°20' E 005°18'0 0.0
2014-Dec-15 07:32N 59°20' E 005°18'0 0.0
2014-Dec-15 06:32N 59°20' E 005°18'0 0.0
2014-Dec-15 05:14N 59°20' E 005°18'0 0.0
2014-Dec-15 04:32N 59°20' E 005°18'0 0.0
2014-Dec-15 03:32N 59°20' E 005°18'0 0.0
2014-Dec-15 02:32N 59°20' E 005°18'0 0.0
2014-Dec-15 01:31N 59°20' E 005°18'5 4.8
2014-Dec-15 00:33N 59°16' E 005°20'1110.8
2014-Dec-14 23:33N 59°06' E 005°31'1110.6
2014-Dec-14 22:33N 59°00' E 005°48'8 8.2
2014-Dec-14 21:33N 58°52' E 005°45'0 0.0
2014-Dec-14 20:33N 58°52' E 005°45'0 0.0
2014-Dec-14 19:33N 58°52' E 005°45'0 0.0
2014-Dec-14 18:33N 58°52' E 005°45'0 0.0
2014-Dec-14 17:33N 58°52' E 005°45'0 0.0
2014-Dec-14 16:33N 58°52' E 005°45'7 6.5
2014-Dec-14 15:33N 58°59' E 005°47'8 7.8
2014-Dec-14 14:33N 59°01' E 005°33'1313.2
2014-Dec-14 13:34N 58°49' E 005°26'1312.4
2014-Dec-14 12:30N 58°36' E 005°33'1213.2
2014-Dec-14 11:33N 58°26' E 005°46'1212.4
2014-Dec-14 10:33N 58°17' E 006°04'73 3.1
2014-Dec-13 11:08N 58°07' E 008°20'711.6
2014-Dec-13 10:33N 58°11' E 008°31'1111.3
2014-Dec-13 09:33N 58°17' E 008°48'5612.6
2014-Dec-13 05:09N 58°51' E 010°14'914.8
2014-Dec-13 04:33N 58°56' E 010°28'1313.2
2014-Dec-13 03:33N 59°02' E 010°50'9 8.9
2014-Dec-13 02:33N 59°10' E 010°57'1 1.4
2014-Dec-13 01:32N 59°11' E 010°57'0 0.0
2014-Dec-13 00:32N 59°11' E 010°57'0 0.0
2014-Dec-12 23:32N 59°11' E 010°57'0 0.0
2014-Dec-12 22:29N 59°11' E 010°57'0 0.0
2014-Dec-12 21:32N 59°11' E 010°57'0 0.0
2014-Dec-12 20:32N 59°11' E 010°57'0 0.0
2014-Dec-12 19:32N 59°11' E 010°57'0 0.0
2014-Dec-12 18:32N 59°11' E 010°57'0 0.0
2014-Dec-12 17:32N 59°11' E 010°57'0 0.0
2014-Dec-12 16:32N 59°11' E 010°57'0 0.0
2014-Dec-12 15:32N 59°11' E 010°57'0 0.0
2014-Dec-12 14:32N 59°11' E 010°57'0 0.0
2014-Dec-12 12:33N 59°11' E 010°57'4 4.4
2014-Dec-12 11:33N 59°07' E 010°58'9 8.8
2014-Dec-12 10:33N 59°02' E 010°44'1312.5
2014-Dec-12 09:33N 58°58' E 010°21'11 9.0
2014-Dec-12 08:20N 59°03' E 010°03'0 0.0
2014-Dec-12 03:06N 59°03' E 010°03'2 3.8
2014-Dec-12 02:33N 59°01' E 010°04'2512.6
2014-Dec-12 00:33N 58°36' E 010°18'1212.2
2014-Dec-11 23:33N 58°25' E 010°26'1312.5
2014-Dec-11 22:33N 58°13' E 010°33'1313.0
2014-Dec-11 21:33N 58°00' E 010°40'1413.1
2014-Dec-11 20:28N 57°46' E 010°45'9 7.8
2014-Dec-11 19:17N 57°38' E 010°41'1013.8
2014-Dec-11 18:33N 57°28' E 010°42'  
Track history (hours):
 
Tides and Currents Weather Stations Pressure Air Temp Water Temp Dewpoint Dewpoint Depression Visibility Wind Speed Wind Dir Waves Ship Positions

Green Ice

Last reported at 2014-Dec-21 04:34 UTC. Time now 2014-Dec-22 06:22 UTC.
Position N 70°42' E 023°33'.

Length 86 m; draft 5.9 m.

MMSI: 311411000.

Date/timePositionNaut miles runAvg speedWind from/ knotsBaromVisibWave heightAir tempDewpointWater temp
2014-Dec-21 04:34N 70°42' E 023°33'3 3.2
2014-Dec-21 03:34N 70°40' E 023°41'0 0.0
2014-Dec-21 02:33N 70°40' E 023°41'0 0.0
2014-Dec-21 01:34N 70°40' E 023°41'2 1.8
2014-Dec-21 00:33N 70°38' E 023°40'5 5.2
2014-Dec-20 23:33N 70°33' E 023°38'106 6.6
2014-Dec-20 07:32N 69°43' E 019°02'4 0.7
2014-Dec-20 01:33N 69°39' E 018°58'147 8.4
2014-Dec-19 08:04N 67°50' E 014°25'713.8
2014-Dec-19 07:33N 67°44' E 014°17'1313.6
2014-Dec-19 06:33N 67°31' E 014°22'1313.1
2014-Dec-19 05:33N 67°17' E 014°22'1 0.7
2014-Dec-19 04:33N 67°17' E 014°24'0 0.0
2014-Dec-19 03:33N 67°17' E 014°24'0 0.0
2014-Dec-19 02:33N 67°17' E 014°24'0 0.0
2014-Dec-19 01:33N 67°17' E 014°24'0 0.0
2014-Dec-19 00:33N 67°17' E 014°24'1 0.9
2014-Dec-18 23:33N 67°17' E 014°22'1212.0
2014-Dec-18 22:33N 67°08' E 014°01'1313.1
2014-Dec-18 21:33N 66°58' E 013°39'129 8.6
2014-Dec-18 06:28N 64°59' E 011°35'1112.4
2014-Dec-18 05:33N 64°52' E 011°15'0 0.4
2014-Dec-18 04:33N 64°52' E 011°14'0 0.0
2014-Dec-18 03:33N 64°52' E 011°14'  
2014-Dec-15 11:24N 59°30' E 005°13'810.0
2014-Dec-15 10:33N 59°22' E 005°18'2 1.8
2014-Dec-15 09:32N 59°20' E 005°18'0 0.0
2014-Dec-15 07:32N 59°20' E 005°18'0 0.0
2014-Dec-15 06:32N 59°20' E 005°18'0 0.0
2014-Dec-15 05:14N 59°20' E 005°18'0 0.0
2014-Dec-15 04:32N 59°20' E 005°18'0 0.0
2014-Dec-15 03:32N 59°20' E 005°18'0 0.0
2014-Dec-15 02:32N 59°20' E 005°18'0 0.0
2014-Dec-15 01:31N 59°20' E 005°18'5 4.8
2014-Dec-15 00:33N 59°16' E 005°20'1110.8
2014-Dec-14 23:33N 59°06' E 005°31'1110.6
2014-Dec-14 22:33N 59°00' E 005°48'8 8.2
2014-Dec-14 21:33N 58°52' E 005°45'0 0.0
2014-Dec-14 20:33N 58°52' E 005°45'0 0.0
2014-Dec-14 19:33N 58°52' E 005°45'0 0.0
2014-Dec-14 18:33N 58°52' E 005°45'0 0.0
2014-Dec-14 17:33N 58°52' E 005°45'0 0.0
2014-Dec-14 16:33N 58°52' E 005°45'7 6.5
2014-Dec-14 15:33N 58°59' E 005°47'8 7.8
2014-Dec-14 14:33N 59°01' E 005°33'1313.2
2014-Dec-14 13:34N 58°49' E 005°26'1312.4
2014-Dec-14 12:30N 58°36' E 005°33'1213.2
2014-Dec-14 11:33N 58°26' E 005°46'1212.4
2014-Dec-14 10:33N 58°17' E 006°04'73 3.1
2014-Dec-13 11:08N 58°07' E 008°20'711.6
2014-Dec-13 10:33N 58°11' E 008°31'1111.3
2014-Dec-13 09:33N 58°17' E 008°48'5612.6
2014-Dec-13 05:09N 58°51' E 010°14'914.8
2014-Dec-13 04:33N 58°56' E 010°28'1313.2
2014-Dec-13 03:33N 59°02' E 010°50'9 8.9
2014-Dec-13 02:33N 59°10' E 010°57'1 1.4
2014-Dec-13 01:32N 59°11' E 010°57'0 0.0
2014-Dec-13 00:32N 59°11' E 010°57'0 0.0
2014-Dec-12 23:32N 59°11' E 010°57'0 0.0
2014-Dec-12 22:29N 59°11' E 010°57'0 0.0
2014-Dec-12 21:32N 59°11' E 010°57'0 0.0
2014-Dec-12 20:32N 59°11' E 010°57'0 0.0
2014-Dec-12 19:32N 59°11' E 010°57'0 0.0
2014-Dec-12 18:32N 59°11' E 010°57'0 0.0
2014-Dec-12 17:32N 59°11' E 010°57'0 0.0
2014-Dec-12 16:32N 59°11' E 010°57'0 0.0
2014-Dec-12 15:32N 59°11' E 010°57'0 0.0
2014-Dec-12 14:32N 59°11' E 010°57'0 0.0
2014-Dec-12 12:33N 59°11' E 010°57'4 4.4
2014-Dec-12 11:33N 59°07' E 010°58'9 8.8
2014-Dec-12 10:33N 59°02' E 010°44'1312.5
2014-Dec-12 09:33N 58°58' E 010°21'11 9.0
2014-Dec-12 08:20N 59°03' E 010°03'0 0.0
2014-Dec-12 03:06N 59°03' E 010°03'2 3.8
2014-Dec-12 02:33N 59°01' E 010°04'2512.6
2014-Dec-12 00:33N 58°36' E 010°18'1212.2
2014-Dec-11 23:33N 58°25' E 010°26'1312.5
2014-Dec-11 22:33N 58°13' E 010°33'1313.0
2014-Dec-11 21:33N 58°00' E 010°40'1413.1
2014-Dec-11 20:28N 57°46' E 010°45'9 7.8
2014-Dec-11 19:17N 57°38' E 010°41'1013.8
2014-Dec-11 18:33N 57°28' E 010°42'  

Dump ship's entire track history